Lawai, Hawaii
Current Conditions -  °F | °C
As of 11:53 AM on Monday 26 Jan 2015 (Local Time) from PHLI Reporting Station
Overcast Overcast  
Wind Chill: 72°   Ceiling: 3400
Heat Index: 72°   Visibility: 9mi
Dew Point: 60°   Wind: 13mph
Humidity: 66%   Direction: 60°ENE
Pressure: 30.02"   Gusts: 22mph
Location:  21.92°N, 159.5°W
Report Text: PHLI 262153Z 06011G19KT 9SM FEW025 BKN034 OVC044 22/16 A3002 RMK AO2 SLP164 T02220156
Loading
Personal Weather Stations






























Interactive Weather Map New forecast layout! Learn more

10-Day Weather Forecast

Advertisements
Track Severe Weather on mobile